createdAt,value
2018-03-27T00:00:18.376Z,8.90
2018-03-27T00:02:49.380Z,7.03
2018-03-27T00:05:19.972Z,8.90
2018-03-27T00:07:50.984Z,6.40
2018-03-27T00:10:21.812Z,6.50
2018-03-27T00:12:53.016Z,7.90
2018-03-27T00:15:24.219Z,7.93
2018-03-27T00:17:55.177Z,8.03
2018-03-27T00:20:25.893Z,8.03
2018-03-27T00:22:56.157Z,7.27
2018-03-27T00:25:26.902Z,11.30
2018-03-27T00:28:08.387Z,7.37
2018-03-27T00:30:49.824Z,10.83
2018-03-27T00:33:31.709Z,8.90
2018-03-27T00:36:13.284Z,8.23
2018-03-27T00:38:55.081Z,10.17
2018-03-27T00:41:34.335Z,7.50
2018-03-27T00:44:05.910Z,8.60
2018-03-27T00:46:36.821Z,8.43
2018-03-27T00:49:07.944Z,7.70
2018-03-27T00:51:39.268Z,10.37
2018-03-27T00:54:10.791Z,7.13
2018-03-27T00:56:42.833Z,6.73
2018-03-27T00:59:13.983Z,6.83
2018-03-27T01:01:45.550Z,6.53
2018-03-27T01:04:16.368Z,6.30
2018-03-27T01:06:46.905Z,9.53
2018-03-27T01:09:18.227Z,8.23
2018-03-27T01:11:49.195Z,7.20
2018-03-27T01:14:20.151Z,6.37
2018-03-27T01:16:51.165Z,9.87
2018-03-27T01:19:22.218Z,9.53
2018-03-27T01:21:53.263Z,10.07
2018-03-27T01:24:24.827Z,7.57
2018-03-27T01:26:55.659Z,8.17
2018-03-27T01:29:26.850Z,8.87
2018-03-27T01:31:57.962Z,8.50
2018-03-27T01:34:28.869Z,6.73
2018-03-27T01:36:59.864Z,8.37
2018-03-27T01:39:31.073Z,8.50
2018-03-27T01:42:02.258Z,8.20
2018-03-27T01:44:34.454Z,9.33
2018-03-27T01:47:05.929Z,8.23
2018-03-27T01:49:37.070Z,8.00
2018-03-27T01:52:08.186Z,8.10
2018-03-27T01:54:39.513Z,8.77
2018-03-27T01:57:10.446Z,8.00
2018-03-27T01:59:41.223Z,10.17
2018-03-27T02:02:12.988Z,10.07
2018-03-27T02:04:44.564Z,8.77
2018-03-27T02:07:15.941Z,8.87
2018-03-27T02:09:47.304Z,9.33
2018-03-27T02:12:23.218Z,8.50
2018-03-27T02:14:59.367Z,9.50
2018-03-27T02:17:35.318Z,8.97
2018-03-27T02:20:11.489Z,10.00
2018-03-27T02:22:43.250Z,9.80
2018-03-27T02:25:14.880Z,9.77
2018-03-27T02:27:46.091Z,8.60
2018-03-27T02:30:16.871Z,10.03
2018-03-27T02:32:48.046Z,12.20
2018-03-27T02:35:20.460Z,9.40
2018-03-27T02:37:55.763Z,10.17
2018-03-27T02:40:26.712Z,10.90
2018-03-27T02:42:57.924Z,9.93
2018-03-27T02:45:28.892Z,8.87
2018-03-27T02:47:59.985Z,10.00
2018-03-27T02:50:30.724Z,9.17
2018-03-27T02:53:01.778Z,8.30
2018-03-27T02:55:33.886Z,10.90
2018-03-27T02:58:05.027Z,11.63
2018-03-27T03:00:37.156Z,10.07
2018-03-27T03:03:08.701Z,10.47
2018-03-27T03:05:40.092Z,8.23
2018-03-27T03:08:11.842Z,10.93
2018-03-27T03:10:43.477Z,8.90
2018-03-27T03:13:14.532Z,8.63
2018-03-27T03:15:46.173Z,10.90
2018-03-27T03:18:17.968Z,10.00
2018-03-27T03:20:49.585Z,8.77
2018-03-27T03:23:20.600Z,8.13
2018-03-27T03:25:51.721Z,10.13
2018-03-27T03:28:23.131Z,9.30
2018-03-27T03:30:53.997Z,10.13
2018-03-27T03:33:24.978Z,9.77
2018-03-27T03:35:57.060Z,7.00
2018-03-27T03:38:28.501Z,8.00
2018-03-27T03:40:59.727Z,9.37
2018-03-27T03:43:30.698Z,9.30
2018-03-27T03:46:02.525Z,11.50
2018-03-27T03:48:33.791Z,9.30
2018-03-27T03:51:05.191Z,8.70
2018-03-27T03:53:37.696Z,12.53
2018-03-27T03:56:09.670Z,7.80
2018-03-27T03:58:40.762Z,9.47
2018-03-27T04:01:11.679Z,11.07
2018-03-27T04:03:43.115Z,10.30
2018-03-27T04:06:13.964Z,10.20
2018-03-27T04:08:44.934Z,10.10
2018-03-27T04:11:16.699Z,9.00
2018-03-27T04:13:49.659Z,9.70
2018-03-27T04:16:20.716Z,10.27
2018-03-27T04:18:52.001Z,10.97
2018-03-27T04:21:23.466Z,7.90
2018-03-27T04:23:54.799Z,11.43
2018-03-27T04:26:27.704Z,8.07
2018-03-27T04:28:59.550Z,10.10
2018-03-27T04:31:30.783Z,8.40
2018-03-27T04:34:02.121Z,7.73
2018-03-27T04:36:33.924Z,8.47
2018-03-27T04:39:05.960Z,9.87
2018-03-27T04:41:38.155Z,8.37
2018-03-27T04:44:09.527Z,9.23
2018-03-27T04:46:40.475Z,8.87
2018-03-27T04:49:12.489Z,10.07
2018-03-27T04:51:43.981Z,8.43
2018-03-27T04:54:15.391Z,10.00
2018-03-27T04:56:46.679Z,9.63
2018-03-27T04:59:17.541Z,11.20
2018-03-27T05:01:48.851Z,8.43
2018-03-27T05:04:19.556Z,10.53
2018-03-27T05:06:50.955Z,11.73
2018-03-27T05:09:22.751Z,10.93
2018-03-27T05:11:54.190Z,12.13
2018-03-27T05:14:25.486Z,10.43
2018-03-27T05:16:56.828Z,8.83
2018-03-27T05:19:28.133Z,9.70
2018-03-27T05:21:59.891Z,12.97
2018-03-27T05:24:30.749Z,11.03
2018-03-27T05:27:01.439Z,9.57
2018-03-27T05:29:32.553Z,10.33
2018-03-27T05:32:04.271Z,11.20
2018-03-27T05:34:35.267Z,8.17
2018-03-27T05:37:06.887Z,8.37
2018-03-27T05:41:06.856Z,9.07
2018-03-27T05:43:38.086Z,9.93
2018-03-27T05:46:09.918Z,9.80
2018-03-27T05:48:41.015Z,11.13
2018-03-27T05:51:11.613Z,10.07
2018-03-27T05:53:42.384Z,11.50
2018-03-27T05:56:13.033Z,11.80
2018-03-27T05:58:43.990Z,10.37
2018-03-27T06:01:15.147Z,10.37
2018-03-27T06:03:46.903Z,11.17
2018-03-27T06:06:17.378Z,10.03
2018-03-27T06:08:48.502Z,8.33
2018-03-27T06:11:19.781Z,9.90
2018-03-27T06:13:50.695Z,12.43
2018-03-27T06:19:03.678Z,10.97
2018-03-27T06:21:34.472Z,11.37
2018-03-27T06:24:05.591Z,14.20
2018-03-27T06:26:37.278Z,15.67
2018-03-27T06:29:08.633Z,10.67
2018-03-27T06:31:39.631Z,9.90
2018-03-27T06:34:10.075Z,10.73
2018-03-27T06:36:40.896Z,6.50
2018-03-27T06:39:11.979Z,8.03
2018-03-27T06:41:42.415Z,10.60
2018-03-27T06:44:16.064Z,7.03
2018-03-27T06:46:46.964Z,9.03
2018-03-27T06:49:17.677Z,8.60
2018-03-27T06:51:48.361Z,8.20
2018-03-27T06:54:19.673Z,7.53
2018-03-27T06:56:50.210Z,10.30
2018-03-27T06:59:20.848Z,9.80
2018-03-27T07:01:51.647Z,7.47
2018-03-27T07:04:22.241Z,9.40
2018-03-27T07:06:54.330Z,8.07
2018-03-27T07:09:24.465Z,8.80
2018-03-27T07:11:54.340Z,8.50
2018-03-27T07:14:26.367Z,8.97
2018-03-27T07:16:56.699Z,9.10
2018-03-27T07:19:27.427Z,8.20
2018-03-27T07:21:58.690Z,10.90
2018-03-27T07:24:29.277Z,9.37
2018-03-27T07:26:59.853Z,8.70
2018-03-27T07:29:38.762Z,9.40
2018-03-27T07:32:17.174Z,9.57
2018-03-27T07:34:48.458Z,10.63
2018-03-27T07:37:19.173Z,9.60
2018-03-27T07:39:50.214Z,8.90
2018-03-27T07:42:21.271Z,9.07
2018-03-27T07:44:53.233Z,10.27
2018-03-27T07:47:23.969Z,8.20
2018-03-27T07:49:54.921Z,9.13
2018-03-27T07:52:25.438Z,11.13
2018-03-27T07:54:56.211Z,9.13
2018-03-27T07:57:26.845Z,9.43
2018-03-27T08:00:01.449Z,9.00
2018-03-27T08:02:34.505Z,11.73
2018-03-27T08:05:05.336Z,10.47
2018-03-27T08:07:36.299Z,8.73
2018-03-27T08:10:10.087Z,10.47
2018-03-27T08:12:40.027Z,12.23
2018-03-27T08:15:10.685Z,15.23
2018-03-27T08:17:41.702Z,8.43
2018-03-27T08:20:12.184Z,9.83
2018-03-27T08:22:42.407Z,8.40
2018-03-27T08:25:13.000Z,9.70
2018-03-27T08:27:42.780Z,8.17
2018-03-27T08:30:13.407Z,10.37
2018-03-27T08:32:43.305Z,9.93
2018-03-27T08:38:13.269Z,10.40
2018-03-27T08:43:28.774Z,10.93
2018-03-27T08:46:00.045Z,11.40
2018-03-27T08:48:30.297Z,11.43
2018-03-27T08:51:00.426Z,10.87
2018-03-27T08:53:32.255Z,11.00
2018-03-27T08:56:02.873Z,12.17
2018-03-27T08:58:33.444Z,9.63
2018-03-27T09:01:07.308Z,14.93
2018-03-27T09:03:38.338Z,11.07
2018-03-27T09:06:09.553Z,11.13
2018-03-27T09:08:40.223Z,8.77
2018-03-27T09:11:11.182Z,9.87
2018-03-27T09:13:42.090Z,9.40
2018-03-27T09:16:12.584Z,9.00
2018-03-27T09:18:43.419Z,12.13
2018-03-27T09:21:14.084Z,10.73
2018-03-27T09:23:45.023Z,10.07
2018-03-27T09:26:46.434Z,12.90
2018-03-27T09:29:17.703Z,12.67
2018-03-27T09:31:48.953Z,12.20
2018-03-27T09:34:20.787Z,11.50
2018-03-27T09:36:51.566Z,11.47
2018-03-27T09:39:22.674Z,9.60
2018-03-27T09:41:55.434Z,12.30
2018-03-27T09:44:26.731Z,11.57
2018-03-27T09:46:57.036Z,10.97
2018-03-27T09:49:27.664Z,13.30
2018-03-27T09:51:58.031Z,15.13
2018-03-27T09:54:28.454Z,12.00
2018-03-27T09:56:58.780Z,13.80
2018-03-27T09:59:46.917Z,14.67
2018-03-27T10:02:23.020Z,13.13
2018-03-27T10:04:53.789Z,14.57
2018-03-27T10:07:24.122Z,17.10
2018-03-27T10:09:54.866Z,15.00
2018-03-27T10:12:32.590Z,16.10
2018-03-27T10:15:03.562Z,14.87
2018-03-27T10:17:33.832Z,16.13
2018-03-27T10:20:04.215Z,13.87
2018-03-27T10:22:34.741Z,16.53
2018-03-27T10:25:05.583Z,15.40
2018-03-27T10:27:36.065Z,14.83
2018-03-27T10:30:06.788Z,15.40
2018-03-27T10:32:37.238Z,17.33
2018-03-27T10:35:07.811Z,17.40
2018-03-27T10:37:46.876Z,18.93
2018-03-27T10:40:19.405Z,18.17
2018-03-27T10:42:51.148Z,19.57
2018-03-27T10:45:25.716Z,19.30
2018-03-27T10:48:00.307Z,17.87
2018-03-27T10:50:30.912Z,16.73
2018-03-27T10:53:02.382Z,20.70
2018-03-27T10:55:32.775Z,20.43
2018-03-27T10:58:03.307Z,20.17
2018-03-27T11:00:33.909Z,20.83
2018-03-27T11:03:04.705Z,20.43
2018-03-27T11:05:35.085Z,20.37
2018-03-27T11:08:05.404Z,17.70
2018-03-27T11:10:38.356Z,32.43
2018-03-27T11:13:08.756Z,26.50
2018-03-27T11:15:47.006Z,20.90
2018-03-27T11:18:23.192Z,18.20
2018-03-27T11:20:53.890Z,20.10
2018-03-27T11:23:24.149Z,22.43
2018-03-27T11:25:56.654Z,20.63
2018-03-27T11:28:27.267Z,20.53
2018-03-27T11:30:57.947Z,21.40
2018-03-27T11:33:48.741Z,25.17
2018-03-27T11:36:20.426Z,24.90
2018-03-27T11:38:52.299Z,23.67
2018-03-27T11:41:24.049Z,24.37
2018-03-27T11:43:54.568Z,23.03
2018-03-27T11:46:24.636Z,26.93
2018-03-27T11:48:55.037Z,27.53
2018-03-27T11:51:29.111Z,23.83
2018-03-27T11:53:59.681Z,26.00
2018-03-27T11:56:30.432Z,27.77
2018-03-27T11:59:00.912Z,25.23
2018-03-27T12:01:31.510Z,25.60
2018-03-27T12:04:02.125Z,27.37
2018-03-27T12:06:32.565Z,29.53
2018-03-27T12:09:03.102Z,28.90
2018-03-27T12:11:33.645Z,29.00
2018-03-27T12:14:04.088Z,28.10
2018-03-27T12:16:34.860Z,29.90
2018-03-27T12:19:05.537Z,30.47
2018-03-27T12:21:36.066Z,29.97
2018-03-27T12:24:06.588Z,29.53
2018-03-27T12:26:48.883Z,29.67
2018-03-27T12:29:22.264Z,28.00
2018-03-27T12:31:52.967Z,31.20
2018-03-27T12:34:23.505Z,30.03
2018-03-27T12:36:53.625Z,26.67
2018-03-27T12:39:24.246Z,28.47
2018-03-27T12:41:54.792Z,29.97
2018-03-27T12:44:25.334Z,27.37
2018-03-27T12:46:56.287Z,29.47
2018-03-27T12:49:26.719Z,29.03
2018-03-27T12:51:57.611Z,29.43
2018-03-27T12:54:28.126Z,30.43
2018-03-27T12:57:03.486Z,33.47
2018-03-27T12:59:33.844Z,29.53
2018-03-27T13:02:04.409Z,27.33
2018-03-27T13:04:34.968Z,31.30
2018-03-27T13:07:05.451Z,28.87
2018-03-27T13:09:54.928Z,31.47
2018-03-27T13:18:23.439Z,30.70
2018-03-27T13:20:54.072Z,27.47
2018-03-27T13:23:24.817Z,33.10
2018-03-27T13:25:56.379Z,31.70
2018-03-27T13:28:27.262Z,32.00
2018-03-27T13:30:57.820Z,33.37
2018-03-27T13:33:29.451Z,31.67
2018-03-27T13:36:01.022Z,32.23
2018-03-27T13:38:31.520Z,33.73
2018-03-27T13:41:07.208Z,37.77
2018-03-27T13:43:41.884Z,32.27
2018-03-27T13:46:12.589Z,32.60
2018-03-27T13:48:43.214Z,31.17
2018-03-27T13:51:20.598Z,33.60
2018-03-27T13:53:51.441Z,33.13
2018-03-27T13:56:21.849Z,30.63
2018-03-27T13:58:52.834Z,30.77
2018-03-27T14:01:23.452Z,30.93
2018-03-27T14:03:53.919Z,29.90
2018-03-27T14:06:24.441Z,32.20
2018-03-27T14:08:55.238Z,36.73
2018-03-27T14:11:25.655Z,29.63
2018-03-27T14:13:56.368Z,33.43
2018-03-27T14:16:26.793Z,34.03
2018-03-27T14:18:57.586Z,32.47
2018-03-27T14:21:28.032Z,33.37
2018-03-27T14:24:02.199Z,32.97
2018-03-27T14:26:32.378Z,33.10
2018-03-27T14:29:02.954Z,29.80
2018-03-27T14:31:33.439Z,29.97
2018-03-27T14:34:03.581Z,36.43
2018-03-27T14:36:33.962Z,33.37
2018-03-27T14:39:05.945Z,31.90
2018-03-27T14:44:32.072Z,33.93
2018-03-27T14:47:02.515Z,35.03
2018-03-27T14:49:32.970Z,34.33
2018-03-27T14:52:03.376Z,33.50
2018-03-27T14:54:35.317Z,34.97
2018-03-27T14:57:06.114Z,30.47
2018-03-27T14:59:39.708Z,31.07
2018-03-27T15:02:10.203Z,28.80
2018-03-27T15:04:40.748Z,26.93
2018-03-27T15:07:11.299Z,29.67
2018-03-27T15:09:41.417Z,26.20
2018-03-27T15:12:11.847Z,25.77
2018-03-27T15:14:42.375Z,25.67
2018-03-27T15:17:12.803Z,28.13
2018-03-27T15:19:43.634Z,20.23
2018-03-27T15:22:14.157Z,21.17
2018-03-27T15:24:44.875Z,22.80
2018-03-27T15:27:15.643Z,21.43
2018-03-27T15:29:46.473Z,25.27
2018-03-27T15:32:16.936Z,27.83
2018-03-27T15:34:52.090Z,23.53
2018-03-27T15:37:22.640Z,26.30
2018-03-27T15:39:53.227Z,30.53
2018-03-27T15:42:25.739Z,24.23
2018-03-27T15:44:56.396Z,23.03
2018-03-27T15:47:26.814Z,21.70
2018-03-27T15:49:57.770Z,22.77
2018-03-27T15:52:28.267Z,24.67
2018-03-27T15:54:59.045Z,24.90
2018-03-27T15:57:29.493Z,24.80
2018-03-27T16:00:00.307Z,23.57
2018-03-27T16:02:30.795Z,25.77
2018-03-27T16:05:01.251Z,24.00
2018-03-27T16:07:31.598Z,25.33
2018-03-27T16:10:02.012Z,25.40
2018-03-27T16:12:32.414Z,24.90
2018-03-27T16:15:03.862Z,26.93
2018-03-27T16:17:34.625Z,25.67
2018-03-27T16:20:05.508Z,24.47
2018-03-27T16:22:35.975Z,24.57
2018-03-27T16:25:06.444Z,25.13
2018-03-27T16:27:36.834Z,25.50
2018-03-27T16:30:08.088Z,24.83
2018-03-27T16:32:38.542Z,28.03
2018-03-27T16:35:11.688Z,26.30
2018-03-27T16:37:42.144Z,27.27
2018-03-27T16:40:13.494Z,28.20
2018-03-27T16:42:43.921Z,29.30
2018-03-27T16:45:14.538Z,24.80
2018-03-27T16:47:44.975Z,27.13
2018-03-27T16:50:15.826Z,25.23
2018-03-27T16:52:46.418Z,32.50
2018-03-27T16:55:17.172Z,26.87
2018-03-27T16:57:47.644Z,28.83
2018-03-27T17:00:18.135Z,28.63
2018-03-27T17:02:48.572Z,27.33
2018-03-27T17:05:19.085Z,30.80
2018-03-27T17:07:49.497Z,29.03
2018-03-27T17:10:19.572Z,32.70
2018-03-27T17:12:50.068Z,28.83
2018-03-27T17:15:20.665Z,29.90
2018-03-27T17:17:52.267Z,30.73
2018-03-27T17:20:22.983Z,26.27
2018-03-27T17:22:54.041Z,30.23
2018-03-27T17:25:26.921Z,38.10
2018-03-27T17:27:57.651Z,36.17
2018-03-27T17:30:28.859Z,32.30
2018-03-27T17:33:06.132Z,30.70
2018-03-27T17:35:40.924Z,32.40
2018-03-27T17:38:11.476Z,29.40
2018-03-27T17:40:41.891Z,30.43
2018-03-27T17:43:12.520Z,26.47
2018-03-27T17:45:43.356Z,28.10
2018-03-27T18:03:15.966Z,34.47
2018-03-27T18:05:46.757Z,33.27
2018-03-27T18:08:17.654Z,25.93
2018-03-27T18:10:48.632Z,32.23
2018-03-27T18:16:23.405Z,36.60
2018-03-27T18:24:56.430Z,35.30
2018-03-27T18:27:29.666Z,44.63
2018-03-27T18:30:00.090Z,34.83
2018-03-27T18:32:30.555Z,43.93
2018-03-27T18:35:01.330Z,53.57
2018-03-27T18:37:31.810Z,42.90
2018-03-27T18:40:02.566Z,44.87
2018-03-27T18:42:33.173Z,50.30
2018-03-27T18:45:03.631Z,46.97
2018-03-27T18:47:34.168Z,47.03
2018-03-27T18:50:04.641Z,52.83
2018-03-27T18:52:49.456Z,53.13
2018-03-27T18:55:20.187Z,55.20
2018-03-27T18:57:50.652Z,55.23
2018-03-27T19:00:21.145Z,60.87
2018-03-27T19:02:51.669Z,60.90
2018-03-27T19:05:24.098Z,59.43
2018-03-27T19:07:55.145Z,63.90
2018-03-27T19:10:27.102Z,58.37
2018-03-27T19:12:58.317Z,61.13
2018-03-27T19:15:29.626Z,58.63
2018-03-27T19:18:00.707Z,59.77
2018-03-27T19:20:31.631Z,68.30
2018-03-27T19:23:09.898Z,68.27
2018-03-27T19:26:11.334Z,63.77
2018-03-27T19:28:42.168Z,69.07
2018-03-27T19:31:12.941Z,63.40
2018-03-27T19:33:44.539Z,66.47
2018-03-27T19:36:15.785Z,69.60
2018-03-27T19:38:46.785Z,72.27
2018-03-27T19:41:18.218Z,64.60
2018-03-27T19:43:49.281Z,62.40
2018-03-27T19:46:19.996Z,58.93
2018-03-27T19:48:50.869Z,65.17
2018-03-27T19:51:21.625Z,68.67
2018-03-27T19:53:52.422Z,58.60
2018-03-27T19:56:23.335Z,58.63
2018-03-27T19:58:53.972Z,57.47
2018-03-27T20:01:24.872Z,52.80
2018-03-27T20:03:55.883Z,51.37
2018-03-27T20:06:27.006Z,56.37
2018-03-27T20:08:57.609Z,56.57
2018-03-27T20:11:28.441Z,52.37
2018-03-27T20:13:58.968Z,53.43
2018-03-27T20:16:29.551Z,52.73
2018-03-27T20:19:00.010Z,54.60
2018-03-27T20:21:30.475Z,50.03
2018-03-27T20:24:00.974Z,55.07
2018-03-27T20:26:33.283Z,46.83
2018-03-27T20:29:03.822Z,46.73
2018-03-27T20:46:36.897Z,44.00
2018-03-27T20:52:09.317Z,51.90
2018-03-27T20:54:40.228Z,54.30
2018-03-27T21:03:15.211Z,67.57
2018-03-27T21:05:46.584Z,71.57
2018-03-27T21:08:18.583Z,56.20
2018-03-27T21:10:49.987Z,56.17
2018-03-27T21:13:22.065Z,56.67
2018-03-27T21:15:53.039Z,64.83
2018-03-27T21:18:23.827Z,50.77
2018-03-27T21:20:54.309Z,63.47
2018-03-27T21:23:24.704Z,98.33
2018-03-27T21:25:56.040Z,82.73
2018-03-27T21:28:26.809Z,73.70
2018-03-27T21:30:57.508Z,65.23
2018-03-27T21:33:29.195Z,65.67
2018-03-27T21:35:59.839Z,90.33
2018-03-27T21:38:30.337Z,92.40
2018-03-27T21:41:00.744Z,67.03
2018-03-27T21:43:31.151Z,67.70
2018-03-27T21:46:01.837Z,69.47
2018-03-27T21:48:32.469Z,70.63
2018-03-27T21:51:02.890Z,75.77
2018-03-27T21:53:34.454Z,73.37
2018-03-27T21:56:06.013Z,74.30
2018-03-27T21:58:36.657Z,69.70
2018-03-27T22:01:06.697Z,72.73
2018-03-27T22:03:40.639Z,82.17
2018-03-27T22:06:11.380Z,73.40
2018-03-27T22:08:41.969Z,74.50
2018-03-27T22:11:12.508Z,68.77
2018-03-27T22:13:43.930Z,78.30
2018-03-27T22:16:14.509Z,70.87
2018-03-27T22:18:45.950Z,69.53
2018-03-27T22:21:17.499Z,67.00
2018-03-27T22:23:48.324Z,73.67
2018-03-27T22:26:18.849Z,72.57
2018-03-27T22:28:49.543Z,73.13
2018-03-27T22:31:20.021Z,81.97
2018-03-27T22:33:50.774Z,79.93
2018-03-27T22:36:21.314Z,82.33
2018-03-27T22:38:52.601Z,83.47
2018-03-27T22:41:23.184Z,73.37
2018-03-27T22:43:54.280Z,76.13
2018-03-27T22:46:24.912Z,74.43
2018-03-27T22:48:55.409Z,75.30
2018-03-27T22:51:25.532Z,79.07
2018-03-27T22:53:56.232Z,73.70
2018-03-27T22:56:26.858Z,71.23
2018-03-27T22:58:57.379Z,62.73
2018-03-27T23:01:27.876Z,64.23
2018-03-27T23:03:58.839Z,62.40
2018-03-27T23:06:30.126Z,56.90
2018-03-27T23:09:01.135Z,62.20
2018-03-27T23:11:31.774Z,60.33
2018-03-27T23:14:01.929Z,68.37
2018-03-27T23:16:32.459Z,63.23
2018-03-27T23:19:03.178Z,62.93
2018-03-27T23:21:33.691Z,69.23
2018-03-27T23:24:04.574Z,59.93
2018-03-27T23:26:35.178Z,69.30
2018-03-27T23:29:06.420Z,62.03
2018-03-27T23:31:37.014Z,57.67
2018-03-27T23:34:07.604Z,68.93
2018-03-27T23:36:38.654Z,67.50
2018-03-27T23:39:09.648Z,65.13
2018-03-27T23:41:40.490Z,59.17
2018-03-27T23:44:11.255Z,62.67
2018-03-27T23:46:41.939Z,61.43
2018-03-27T23:49:14.146Z,75.37
2018-03-27T23:51:45.712Z,68.70
2018-03-27T23:54:16.414Z,63.10
2018-03-27T23:56:47.330Z,64.27
2018-03-27T23:59:18.145Z,63.03
